Terminal Aerodrome Forecast
Issued by NWS

Current Version | Previous Version | Text Only | Print | Product List | Glossary Off
Versions: 1 2 3 4 5 6 7 8 9 10 11 12 13 14 15 16 17 18 19 20 21

000
FTUS41 KRLX 181500 AAA
TAFCKB
TAF AMD
KCKB 181527Z 1815/1912 25006KT P6SM OVC022
     FM182200 26005KT P6SM BKN025 OVC060
     FM190700 26003KT 6SM -SHSN BKN020=

USA.gov is the U.S. government's official web portal to all federal, state and local government web resources and services.